Time;durP1;ratioP1;P1;durP2;ratioP2;P2;SDS_P1;SDS_P2;PMS_P1;PMS_P2;Temp;Humidity;BMP_temperature;BMP_pressure;BME280_temperature;BME280_humidity;BME280_pressure;Samples;Min_cycle;Max_cycle;Signal;HPM_P1;HPM_P2
2023/04/28 00:01:49;;;;;;;11.25;7.70;;;;;;;;;;5043295;28;20079;-78
2023/04/28 00:04:16;;;;;;;12.60;8.18;;;;;;;;;;5013589;28;20042;-75
2023/04/28 00:06:45;;;;;;;14.07;8.57;;;;;;;;;;5027034;28;20048;-77
2023/04/28 00:09:10;;;;;;;10.95;7.88;;;;;;;;;;5011057;28;20166;-75
2023/04/28 00:11:38;;;;;;;12.57;7.85;;;;;;;;;;5021601;28;20049;-76
2023/04/28 00:14:03;;;;;;;13.38;7.70;;;;;;;;;;4993611;28;20030;-75
2023/04/28 00:16:29;;;;;;;11.13;8.20;;;;;;;;;;4992004;28;20061;-76
2023/04/28 00:18:55;;;;;;;13.18;8.25;;;;;;;;;;4993040;28;20053;-79
2023/04/28 00:21:20;;;;;;;15.63;8.48;;;;;;;;;;4991223;28;20048;-76
2023/04/28 00:23:45;;;;;;;14.75;7.68;;;;;;;;;;4992785;28;20141;-75
2023/04/28 00:26:11;;;;;;;14.90;8.07;;;;;;;;;;4995257;28;20041;-75
2023/04/28 00:28:36;;;;;;;13.00;7.97;;;;;;;;;;4995262;28;20060;-74
2023/04/28 00:31:08;;;;;;;16.98;8.82;;;;;;;;;;4991975;28;20073;-74
2023/04/28 00:33:34;;;;;;;11.27;8.00;;;;;;;;;;4989161;28;20099;-75
2023/04/28 00:36:01;;;;;;;13.32;8.80;;;;;;;;;;4991184;28;20033;-75
2023/04/28 00:38:26;;;;;;;12.93;7.65;;;;;;;;;;4996784;28;20084;-77
2023/04/28 00:40:51;;;;;;;11.75;8.23;;;;;;;;;;4995588;28;20036;-77
2023/04/28 00:43:19;;;;;;;12.35;7.97;;;;;;;;;;5016353;28;20096;-75
2023/04/28 00:45:50;;;;;;;11.18;7.88;;;;;;;;;;5011822;28;20064;-75
2023/04/28 00:48:16;;;;;;;12.48;7.95;;;;;;;;;;5009155;28;20892;-73
2023/04/28 00:50:42;;;;;;;11.90;8.00;;;;;;;;;;5011594;28;20138;-77
2023/04/28 00:53:11;;;;;;;12.07;8.70;;;;;;;;;;4989883;28;20045;-75
2023/04/28 00:55:37;;;;;;;13.13;7.97;;;;;;;;;;4989270;28;20075;-75
2023/04/28 00:58:03;;;;;;;12.40;7.80;;;;;;;;;;5019463;28;20554;-75
2023/04/28 01:00:28;;;;;;;13.32;8.18;;;;;;;;;;5018970;28;20042;-76
2023/04/28 01:02:54;;;;;;;12.00;8.57;;;;;;;;;;5019004;28;20044;-74
2023/04/28 01:05:19;;;;;;;12.32;8.05;;;;;;;;;;4990259;28;20395;-78
2023/04/28 01:07:45;;;;;;;11.25;8.43;;;;;;;;;;5016458;28;20037;-75
2023/04/28 01:10:10;;;;;;;12.32;8.27;;;;;;;;;;4987034;28;20068;-75
2023/04/28 01:12:35;;;;;;;15.05;9.07;;;;;;;;;;5018591;28;20041;-75
2023/04/28 01:15:01;;;;;;;13.18;8.38;;;;;;;;;;5022413;28;20045;-74
2023/04/28 01:17:26;;;;;;;15.30;8.90;;;;;;;;;;5020000;28;20069;-75
2023/04/28 01:19:52;;;;;;;14.55;9.50;;;;;;;;;;5008542;28;20045;-77
2023/04/28 01:22:17;;;;;;;15.50;8.93;;;;;;;;;;5007385;28;20049;-75
2023/04/28 01:24:42;;;;;;;14.73;9.23;;;;;;;;;;5008035;28;20198;-74
2023/04/28 01:27:07;;;;;;;14.30;9.30;;;;;;;;;;5014486;28;20625;-75
2023/04/28 01:29:33;;;;;;;15.10;8.90;;;;;;;;;;5012743;28;20048;-72
2023/04/28 01:31:58;;;;;;;17.42;9.50;;;;;;;;;;5012230;28;20403;-76
2023/04/28 01:34:23;;;;;;;11.98;8.82;;;;;;;;;;5041975;28;21883;-75
2023/04/28 01:36:49;;;;;;;16.40;9.98;;;;;;;;;;5009491;28;20072;-76
2023/04/28 01:39:14;;;;;;;11.05;8.45;;;;;;;;;;5041396;28;20442;-76
2023/04/28 01:41:39;;;;;;;17.83;9.20;;;;;;;;;;5021211;28;20041;-77
2023/04/28 01:44:06;;;;;;;14.57;9.25;;;;;;;;;;5042782;28;20029;-75
2023/04/28 01:46:34;;;;;;;13.77;9.32;;;;;;;;;;5039667;28;20200;-77
2023/04/28 01:49:01;;;;;;;12.25;9.07;;;;;;;;;;5020282;28;20038;-78
2023/04/28 01:51:27;;;;;;;11.75;8.00;;;;;;;;;;4988607;28;20618;-74
2023/04/28 01:53:52;;;;;;;13.13;8.75;;;;;;;;;;4999175;28;20066;-77
2023/04/28 01:56:17;;;;;;;11.80;8.68;;;;;;;;;;5038611;28;20033;-75
2023/04/28 01:58:43;;;;;;;13.85;8.30;;;;;;;;;;5038391;28;20040;-74
2023/04/28 02:01:08;;;;;;;14.30;8.73;;;;;;;;;;5005847;28;20101;-72
2023/04/28 02:03:33;;;;;;;13.18;8.50;;;;;;;;;;5009537;28;20059;-76
2023/04/28 02:05:58;;;;;;;12.52;8.52;;;;;;;;;;5009587;28;20046;-75
2023/04/28 02:08:24;;;;;;;13.32;8.77;;;;;;;;;;5030688;28;21452;-73
2023/04/28 02:10:52;;;;;;;15.07;8.73;;;;;;;;;;5040989;28;20034;-74
2023/04/28 02:13:17;;;;;;;15.02;8.90;;;;;;;;;;5043400;28;20596;-75
2023/04/28 02:15:43;;;;;;;15.27;8.65;;;;;;;;;;5009991;28;20033;-73
2023/04/28 02:18:11;;;;;;;15.13;8.85;;;;;;;;;;5012012;28;20103;-73
2023/04/28 02:20:36;;;;;;;12.82;8.48;;;;;;;;;;5008884;28;20041;-69
2023/04/28 02:23:03;;;;;;;14.07;8.68;;;;;;;;;;5040023;28;20071;-74
2023/04/28 02:25:29;;;;;;;14.85;9.25;;;;;;;;;;5011381;28;20168;-75
2023/04/28 02:27:54;;;;;;;14.93;9.05;;;;;;;;;;5039665;28;20214;-74
2023/04/28 02:30:19;;;;;;;14.70;8.45;;;;;;;;;;5025974;28;20406;-72
2023/04/28 02:32:45;;;;;;;11.82;8.35;;;;;;;;;;5037662;28;20295;-75
2023/04/28 02:35:15;;;;;;;12.23;8.77;;;;;;;;;;5039643;28;20502;-75
2023/04/28 02:37:40;;;;;;;11.23;8.48;;;;;;;;;;5008091;28;20037;-77
2023/04/28 02:40:06;;;;;;;13.85;9.15;;;;;;;;;;4995320;28;20033;-73
2023/04/28 02:42:31;;;;;;;12.52;8.65;;;;;;;;;;4993751;28;20120;-75
2023/04/28 02:44:57;;;;;;;12.82;8.50;;;;;;;;;;4992849;28;20038;-74
2023/04/28 02:47:22;;;;;;;14.73;9.18;;;;;;;;;;4996049;28;20088;-77
2023/04/28 02:49:47;;;;;;;15.35;8.73;;;;;;;;;;4996717;28;20065;-75
2023/04/28 02:52:15;;;;;;;13.88;8.55;;;;;;;;;;4993485;28;20964;-76
2023/04/28 02:54:42;;;;;;;13.27;8.77;;;;;;;;;;4985412;28;20069;-75
2023/04/28 02:57:08;;;;;;;13.98;9.00;;;;;;;;;;4992361;28;20446;-75
2023/04/28 02:59:34;;;;;;;12.52;9.30;;;;;;;;;;4990320;28;20172;-75
2023/04/28 03:01:59;;;;;;;15.40;9.30;;;;;;;;;;4991674;28;20608;-75
2023/04/28 03:04:26;;;;;;;15.10;9.18;;;;;;;;;;4991068;28;20064;-71
2023/04/28 03:06:52;;;;;;;13.82;9.18;;;;;;;;;;4993615;28;20171;-76
2023/04/28 03:09:17;;;;;;;15.13;9.13;;;;;;;;;;4992878;28;20107;-70
2023/04/28 03:11:42;;;;;;;13.88;9.07;;;;;;;;;;4991521;28;20156;-74
2023/04/28 03:14:10;;;;;;;13.13;8.95;;;;;;;;;;4991515;28;20452;-77
2023/04/28 03:16:36;;;;;;;15.38;10.48;;;;;;;;;;4969091;28;20042;-74
2023/04/28 03:19:02;;;;;;;15.27;9.55;;;;;;;;;;4981040;28;20044;-75
2023/04/28 03:21:27;;;;;;;13.90;9.68;;;;;;;;;;4989576;28;20038;-76
2023/04/28 03:23:53;;;;;;;18.45;9.18;;;;;;;;;;5007038;28;20042;-73
2023/04/28 03:26:21;;;;;;;16.80;10.13;;;;;;;;;;4988389;28;21085;-76
2023/04/28 03:28:46;;;;;;;15.02;9.45;;;;;;;;;;4997383;28;20038;-74
2023/04/28 03:31:13;;;;;;;13.00;9.40;;;;;;;;;;4994509;28;20049;-76
2023/04/28 03:33:39;;;;;;;15.73;9.40;;;;;;;;;;4990007;28;20038;-77
2023/04/28 03:36:04;;;;;;;13.60;9.07;;;;;;;;;;5019578;28;20125;-75
2023/04/28 03:38:30;;;;;;;16.27;9.63;;;;;;;;;;4991336;28;20082;-75
2023/04/28 03:40:55;;;;;;;16.95;9.30;;;;;;;;;;4976698;28;20037;-74
2023/04/28 03:43:21;;;;;;;14.13;9.15;;;;;;;;;;4996279;28;20096;-74
2023/04/28 03:45:48;;;;;;;14.25;9.70;;;;;;;;;;4989771;28;20129;-73
2023/04/28 03:48:16;;;;;;;15.10;9.95;;;;;;;;;;4992674;28;20042;-75
2023/04/28 03:50:42;;;;;;;13.85;10.05;;;;;;;;;;4988192;28;20060;-74
2023/04/28 03:53:07;;;;;;;15.88;9.18;;;;;;;;;;4990124;28;20042;-75
2023/04/28 03:55:32;;;;;;;14.25;9.25;;;;;;;;;;4990676;28;20048;-75
2023/04/28 03:57:58;;;;;;;17.35;9.75;;;;;;;;;;4991939;28;20037;-75
2023/04/28 04:00:23;;;;;;;12.68;8.90;;;;;;;;;;4990984;28;20038;-73
2023/04/28 04:02:48;;;;;;;15.40;9.23;;;;;;;;;;4988402;28;20033;-74
2023/04/28 04:05:14;;;;;;;11.98;9.52;;;;;;;;;;4988315;28;20506;-73
2023/04/28 04:07:41;;;;;;;14.73;9.60;;;;;;;;;;4989384;28;20042;-74
2023/04/28 04:10:09;;;;;;;15.82;9.85;;;;;;;;;;5000845;28;21025;-73
2023/04/28 04:12:37;;;;;;;14.55;9.63;;;;;;;;;;5009318;28;20037;-76
2023/04/28 04:15:02;;;;;;;15.05;9.77;;;;;;;;;;5008173;28;20757;-76
2023/04/28 04:17:27;;;;;;;13.10;9.50;;;;;;;;;;5040111;28;20152;-75
2023/04/28 04:19:53;;;;;;;17.55;10.60;;;;;;;;;;5009375;28;20036;-75
2023/04/28 04:22:18;;;;;;;17.02;10.40;;;;;;;;;;5007235;28;20038;-75
2023/04/28 04:24:43;;;;;;;15.73;9.95;;;;;;;;;;5011183;28;20724;-75
2023/04/28 04:27:09;;;;;;;13.98;9.85;;;;;;;;;;5009545;28;20045;-74
2023/04/28 04:29:34;;;;;;;15.23;10.20;;;;;;;;;;5007783;28;20037;-74
2023/04/28 04:31:59;;;;;;;18.45;10.10;;;;;;;;;;5010129;28;20064;-74
2023/04/28 04:34:24;;;;;;;14.63;10.10;;;;;;;;;;5007967;28;20033;-68
2023/04/28 04:36:50;;;;;;;17.40;10.85;;;;;;;;;;5039741;28;20037;-75
2023/04/28 04:39:15;;;;;;;15.43;10.05;;;;;;;;;;5004862;28;20037;-76
2023/04/28 04:41:41;;;;;;;14.43;10.70;;;;;;;;;;5008330;28;20041;-75
2023/04/28 04:44:06;;;;;;;15.50;11.05;;;;;;;;;;5009818;28;20111;-75
2023/04/28 04:46:31;;;;;;;14.73;10.73;;;;;;;;;;4998887;28;20053;-76
2023/04/28 04:48:58;;;;;;;15.50;11.18;;;;;;;;;;5037066;28;20528;-71
2023/04/28 04:51:24;;;;;;;15.50;10.55;;;;;;;;;;5040688;28;20049;-75
2023/04/28 04:53:51;;;;;;;13.55;10.35;;;;;;;;;;5046530;28;20033;-75
2023/04/28 04:56:17;;;;;;;16.80;11.45;;;;;;;;;;5019831;28;20068;-75
2023/04/28 04:58:43;;;;;;;18.60;11.15;;;;;;;;;;5020243;28;20041;-76
2023/04/28 05:01:09;;;;;;;17.40;11.38;;;;;;;;;;5016490;28;20125;-76
2023/04/28 05:03:36;;;;;;;16.55;11.38;;;;;;;;;;5018944;28;20404;-73
2023/04/28 05:06:02;;;;;;;16.05;11.52;;;;;;;;;;5019180;28;20048;-75
2023/04/28 05:08:27;;;;;;;17.55;12.10;;;;;;;;;;5022495;28;20037;-75
2023/04/28 05:10:53;;;;;;;19.48;11.40;;;;;;;;;;5016161;28;20041;-75
2023/04/28 05:13:18;;;;;;;16.17;11.32;;;;;;;;;;5021463;28;20558;-74
2023/04/28 05:15:43;;;;;;;16.95;11.88;;;;;;;;;;5050315;28;20037;-75
2023/04/28 05:18:10;;;;;;;18.20;12.63;;;;;;;;;;5021728;28;20120;-74
2023/04/28 05:20:36;;;;;;;18.90;12.10;;;;;;;;;;5013558;28;20037;-74
2023/04/28 05:23:01;;;;;;;19.02;12.25;;;;;;;;;;5012270;28;20140;-75
2023/04/28 05:25:29;;;;;;;17.73;11.95;;;;;;;;;;5016505;28;20056;-78
2023/04/28 05:27:56;;;;;;;17.45;11.50;;;;;;;;;;5013597;28;20037;-74
2023/04/28 05:30:24;;;;;;;17.77;11.50;;;;;;;;;;5030052;28;22335;-76
2023/04/28 05:32:49;;;;;;;17.30;11.68;;;;;;;;;;5046648;28;20034;-75
2023/04/28 05:35:15;;;;;;;20.15;13.02;;;;;;;;;;5004916;28;20146;-76
2023/04/28 05:37:42;;;;;;;18.55;11.93;;;;;;;;;;5010011;28;20033;-76
2023/04/28 05:40:10;;;;;;;21.23;12.63;;;;;;;;;;5012104;28;20049;-74
2023/04/28 05:42:38;;;;;;;16.42;12.18;;;;;;;;;;5041475;28;20042;-75
2023/04/28 05:45:04;;;;;;;18.48;11.93;;;;;;;;;;5040932;28;20034;-75
2023/04/28 05:47:30;;;;;;;18.98;12.20;;;;;;;;;;5012349;28;20614;-75
2023/04/28 05:49:55;;;;;;;16.35;11.13;;;;;;;;;;5041397;28;20044;-74
2023/04/28 05:52:20;;;;;;;21.20;10.93;;;;;;;;;;5008141;28;20056;-74
2023/04/28 05:54:48;;;;;;;19.90;11.40;;;;;;;;;;5008337;28;20094;-74
2023/04/28 05:57:13;;;;;;;15.20;10.55;;;;;;;;;;5042573;28;20044;-77
2023/04/28 05:59:39;;;;;;;20.58;11.57;;;;;;;;;;5009282;28;20081;-74
2023/04/28 06:02:04;;;;;;;16.25;11.38;;;;;;;;;;5015171;28;20072;-75
2023/04/28 06:04:29;;;;;;;18.30;11.00;;;;;;;;;;5044495;28;20068;-73
2023/04/28 06:06:55;;;;;;;16.48;11.30;;;;;;;;;;5005503;28;20090;-74
2023/04/28 06:09:23;;;;;;;16.90;11.00;;;;;;;;;;5024411;28;20117;-73
2023/04/28 06:11:48;;;;;;;20.80;11.65;;;;;;;;;;5006441;28;20060;-76
2023/04/28 06:14:13;;;;;;;17.77;12.10;;;;;;;;;;5032342;28;20033;-76
2023/04/28 06:16:39;;;;;;;17.42;12.10;;;;;;;;;;5008627;28;20041;-74
2023/04/28 06:19:06;;;;;;;15.77;11.32;;;;;;;;;;5011625;28;20041;-74
2023/04/28 06:21:32;;;;;;;17.05;11.20;;;;;;;;;;5041866;28;20073;-75
2023/04/28 06:23:57;;;;;;;20.50;11.80;;;;;;;;;;5043487;28;20136;-74
2023/04/28 06:26:23;;;;;;;21.88;12.20;;;;;;;;;;5010527;28;20694;-75
2023/04/28 06:28:48;;;;;;;18.70;11.15;;;;;;;;;;5013869;28;20041;-75
2023/04/28 06:31:16;;;;;;;18.15;11.38;;;;;;;;;;5015285;28;20124;-75
2023/04/28 06:33:41;;;;;;;15.10;10.38;;;;;;;;;;5008774;28;20134;-73
2023/04/28 06:36:07;;;;;;;15.50;10.75;;;;;;;;;;5015172;28;20037;-74
2023/04/28 06:38:34;;;;;;;13.68;10.70;;;;;;;;;;5009467;28;20034;-77
2023/04/28 06:40:59;;;;;;;16.25;11.35;;;;;;;;;;5008007;28;20115;-77
2023/04/28 06:43:25;;;;;;;15.95;10.57;;;;;;;;;;5012484;28;20627;-74
2023/04/28 06:45:51;;;;;;;15.68;10.80;;;;;;;;;;5038557;28;20044;-78
2023/04/28 06:48:19;;;;;;;17.85;11.23;;;;;;;;;;5002942;28;20044;-75
2023/04/28 06:50:44;;;;;;;17.70;10.30;;;;;;;;;;5007891;28;20045;-76
2023/04/28 06:53:12;;;;;;;15.40;10.77;;;;;;;;;;5005740;28;20064;-77
2023/04/28 06:55:37;;;;;;;16.17;10.70;;;;;;;;;;5010675;28;20495;-77
2023/04/28 06:58:02;;;;;;;19.08;11.27;;;;;;;;;;5039176;28;20061;-76
2023/04/28 07:00:30;;;;;;;14.35;10.73;;;;;;;;;;5007974;28;20079;-75
2023/04/28 07:02:57;;;;;;;16.23;10.63;;;;;;;;;;5037824;28;20037;-76
2023/04/28 07:05:23;;;;;;;20.05;11.20;;;;;;;;;;5039117;28;20033;-76
2023/04/28 07:07:48;;;;;;;16.05;10.88;;;;;;;;;;5009978;28;20037;-75
2023/04/28 07:10:14;;;;;;;14.57;10.57;;;;;;;;;;5017928;28;20044;-75
2023/04/28 07:12:39;;;;;;;14.38;11.10;;;;;;;;;;5009886;28;20111;-75
2023/04/28 07:15:05;;;;;;;17.67;10.55;;;;;;;;;;5007675;28;20041;-73
2023/04/28 07:17:31;;;;;;;15.63;10.73;;;;;;;;;;5023472;28;20033;-76
2023/04/28 07:19:56;;;;;;;17.20;10.50;;;;;;;;;;5009686;28;20196;-73
2023/04/28 07:22:23;;;;;;;14.20;10.70;;;;;;;;;;5010093;28;20038;-76
2023/04/28 07:24:49;;;;;;;16.13;10.82;;;;;;;;;;5040261;28;20741;-76
2023/04/28 07:27:16;;;;;;;16.75;10.82;;;;;;;;;;5009031;28;20585;-74
2023/04/28 07:29:42;;;;;;;16.90;11.13;;;;;;;;;;5038448;28;20040;-77
2023/04/28 07:32:09;;;;;;;17.23;11.10;;;;;;;;;;5014996;28;20026;-80
2023/04/28 07:34:39;;;;;;;16.92;10.35;;;;;;;;;;5011833;28;20029;-76
2023/04/28 07:37:05;;;;;;;16.10;10.80;;;;;;;;;;5010983;28;20173;-74
2023/04/28 07:39:31;;;;;;;17.13;11.13;;;;;;;;;;5039376;28;20053;-74
2023/04/28 07:42:00;;;;;;;17.33;11.35;;;;;;;;;;5008658;28;20135;-74
2023/04/28 07:44:25;;;;;;;15.27;11.25;;;;;;;;;;5010408;28;22280;-76
2023/04/28 07:46:50;;;;;;;18.35;11.07;;;;;;;;;;5008432;28;20036;-74
2023/04/28 07:49:16;;;;;;;15.00;10.68;;;;;;;;;;5041268;28;22266;-75
2023/04/28 07:51:43;;;;;;;15.63;10.90;;;;;;;;;;5009283;28;20150;-75
2023/04/28 07:54:08;;;;;;;15.05;11.57;;;;;;;;;;5005566;28;20037;-73
2023/04/28 07:56:34;;;;;;;16.60;11.77;;;;;;;;;;5007381;28;20072;-74
2023/04/28 07:58:59;;;;;;;18.15;12.00;;;;;;;;;;5013192;28;20037;-75
2023/04/28 08:01:25;;;;;;;17.33;12.25;;;;;;;;;;5006067;28;20038;-77
2023/04/28 08:03:52;;;;;;;22.90;13.43;;;;;;;;;;5039304;28;20056;-74
2023/04/28 08:06:18;;;;;;;20.33;12.93;;;;;;;;;;5005086;28;20632;-72
2023/04/28 08:08:44;;;;;;;18.35;13.82;;;;;;;;;;5013283;28;20041;-73
2023/04/28 08:11:10;;;;;;;23.73;15.38;;;;;;;;;;5006429;28;20060;-74
2023/04/28 08:13:36;;;;;;;21.27;15.57;;;;;;;;;;5040359;28;20041;-76
2023/04/28 08:16:01;;;;;;;22.63;15.60;;;;;;;;;;5007986;28;20037;-73
2023/04/28 08:18:27;;;;;;;26.35;15.80;;;;;;;;;;5003897;28;21954;-73
2023/04/28 08:20:52;;;;;;;22.35;16.17;;;;;;;;;;5008983;28;20049;-76
2023/04/28 08:23:18;;;;;;;25.25;16.30;;;;;;;;;;5037426;28;20189;-76
2023/04/28 08:25:46;;;;;;;22.50;16.83;;;;;;;;;;5031921;28;20052;-75
2023/04/28 08:28:11;;;;;;;24.33;16.95;;;;;;;;;;5005331;28;20033;-73
2023/04/28 08:30:37;;;;;;;24.85;17.25;;;;;;;;;;5002828;28;20652;-74
2023/04/28 08:33:03;;;;;;;27.42;18.58;;;;;;;;;;5016145;28;20045;-76
2023/04/28 08:35:28;;;;;;;26.85;19.75;;;;;;;;;;5007195;28;20037;-76
2023/04/28 08:37:54;;;;;;;29.23;19.70;;;;;;;;;;5026751;28;20033;-77
2023/04/28 08:40:19;;;;;;;30.80;19.70;;;;;;;;;;5037927;28;20049;-76
2023/04/28 08:42:46;;;;;;;26.40;19.40;;;;;;;;;;5008885;28;20047;-79
2023/04/28 08:45:14;;;;;;;26.85;20.15;;;;;;;;;;5008617;28;20238;-78
2023/04/28 08:47:44;;;;;;;32.15;21.05;;;;;;;;;;5012669;28;20063;-78
2023/04/28 08:50:11;;;;;;;29.95;20.73;;;;;;;;;;5010179;28;20101;-74
2023/04/28 08:52:37;;;;;;;34.53;21.83;;;;;;;;;;5039883;28;20041;-75
2023/04/28 08:55:07;;;;;;;30.67;20.98;;;;;;;;;;5012837;28;20038;-75
2023/04/28 08:57:35;;;;;;;31.92;20.85;;;;;;;;;;5012257;28;20415;-74
2023/04/28 09:00:00;;;;;;;29.05;20.65;;;;;;;;;;5052644;28;20044;-76
2023/04/28 09:02:25;;;;;;;32.17;20.88;;;;;;;;;;5048079;28;20045;-76
2023/04/28 09:04:53;;;;;;;30.02;21.23;;;;;;;;;;5014492;28;20115;-75
2023/04/28 09:07:18;;;;;;;32.65;21.38;;;;;;;;;;5011568;28;20748;-76
2023/04/28 09:09:44;;;;;;;32.60;21.65;;;;;;;;;;5005012;28;20096;-75
2023/04/28 09:12:10;;;;;;;32.25;22.55;;;;;;;;;;5010001;28;20592;-76
2023/04/28 09:14:36;;;;;;;32.60;22.67;;;;;;;;;;5021490;28;20037;-74
2023/04/28 09:17:01;;;;;;;35.95;22.90;;;;;;;;;;5013842;28;20037;-75
2023/04/28 09:19:33;;;;;;;31.55;22.58;;;;;;;;;;5009701;28;20052;-74
2023/04/28 09:21:59;;;;;;;33.53;23.00;;;;;;;;;;5004372;28;20193;-76
2023/04/28 09:24:38;;;;;;;38.83;24.45;;;;;;;;;;5001635;28;20037;-74
2023/04/28 09:27:04;;;;;;;34.88;23.80;;;;;;;;;;5003359;28;20034;-76
2023/04/28 09:29:32;;;;;;;34.55;23.45;;;;;;;;;;5039237;28;20842;-75
2023/04/28 09:32:18;;;;;;;33.00;23.88;;;;;;;;;;5007272;28;20116;-77
2023/04/28 09:34:50;;;;;;;34.38;23.58;;;;;;;;;;5010079;28;20568;-71
2023/04/28 09:37:16;;;;;;;37.10;21.63;;;;;;;;;;5003898;28;20042;-75
2023/04/28 09:39:43;;;;;;;30.70;22.77;;;;;;;;;;5003993;28;20061;-76
2023/04/28 09:42:08;;;;;;;31.45;22.55;;;;;;;;;;5002991;28;20117;-72
2023/04/28 09:44:33;;;;;;;32.20;23.52;;;;;;;;;;5006550;28;20051;-76
2023/04/28 09:46:58;;;;;;;33.03;24.33;;;;;;;;;;5005201;28;20068;-72
2023/04/28 09:49:24;;;;;;;28.05;22.58;;;;;;;;;;5009637;28;20053;-73
2023/04/28 09:51:49;;;;;;;31.45;23.80;;;;;;;;;;5038684;28;20056;-76
2023/04/28 09:54:14;;;;;;;32.53;24.33;;;;;;;;;;5008925;28;20128;-73
2023/04/28 09:56:41;;;;;;;27.08;22.08;;;;;;;;;;5038424;28;20040;-74
2023/04/28 09:59:09;;;;;;;28.38;22.23;;;;;;;;;;5008870;28;20102;-72
2023/04/28 10:01:39;;;;;;;34.15;24.95;;;;;;;;;;5007367;28;20029;-75
2023/04/28 10:04:06;;;;;;;33.75;25.08;;;;;;;;;;5027092;28;20072;-76
2023/04/28 10:06:32;;;;;;;35.28;24.92;;;;;;;;;;5009266;28;20061;-72
2023/04/28 10:08:59;;;;;;;31.42;25.20;;;;;;;;;;5001593;28;20561;-74
2023/04/28 10:11:24;;;;;;;39.03;27.17;;;;;;;;;;5010539;28;20056;-75
2023/04/28 10:13:51;;;;;;;36.58;27.30;;;;;;;;;;5019517;28;20030;-76
2023/04/28 10:16:17;;;;;;;36.92;26.20;;;;;;;;;;4990402;28;20045;-73
2023/04/28 10:18:43;;;;;;;29.40;22.90;;;;;;;;;;4991129;28;20041;-74
2023/04/28 10:21:10;;;;;;;34.58;25.42;;;;;;;;;;4990968;28;20034;-74
2023/04/28 10:23:54;;;;;;;39.50;28.00;;;;;;;;;;4991081;28;20105;-75
2023/04/28 10:26:20;;;;;;;31.95;24.05;;;;;;;;;;4991351;28;20048;-78
2023/04/28 10:28:51;;;;;;;27.10;21.90;;;;;;;;;;5021173;28;20136;-75
2023/04/28 10:31:19;;;;;;;27.97;20.40;;;;;;;;;;4987022;28;20050;-74
2023/04/28 10:33:44;;;;;;;29.05;21.52;;;;;;;;;;4988498;28;21329;-77
2023/04/28 10:36:10;;;;;;;31.65;23.05;;;;;;;;;;4987244;28;20041;-74
2023/04/28 10:39:00;;;;;;;29.30;21.42;;;;;;;;;;4990423;28;20100;-74
2023/04/28 10:41:32;;;;;;;28.60;20.90;;;;;;;;;;4989317;28;20034;-75
2023/04/28 10:43:57;;;;;;;45.28;27.15;;;;;;;;;;5004146;28;20042;-75
2023/04/28 10:46:22;;;;;;;59.63;32.45;;;;;;;;;;5011994;28;20592;-76
2023/04/28 10:48:48;;;;;;;41.20;26.38;;;;;;;;;;4991685;28;20044;-77
2023/04/28 10:51:13;;;;;;;57.83;31.67;;;;;;;;;;5019668;28;20053;-78
2023/04/28 10:53:41;;;;;;;44.22;28.45;;;;;;;;;;4989429;28;20127;-76
2023/04/28 10:56:06;;;;;;;52.88;30.77;;;;;;;;;;4983123;28;20042;-74
2023/04/28 10:58:32;;;;;;;50.22;32.05;;;;;;;;;;4987126;28;20993;-77
2023/04/28 11:01:18;;;;;;;45.38;29.23;;;;;;;;;;4990674;28;20030;-73
2023/04/28 11:03:49;;;;;;;39.20;25.42;;;;;;;;;;4989773;28;20038;-72
2023/04/28 11:06:34;;;;;;;30.80;20.85;;;;;;;;;;5022130;28;20485;-69
2023/04/28 11:09:02;;;;;;;29.27;21.15;;;;;;;;;;5020951;28;20045;-71
2023/04/28 11:11:33;;;;;;;29.42;21.58;;;;;;;;;;4990384;28;20055;-71
2023/04/28 11:14:17;;;;;;;23.50;16.00;;;;;;;;;;4991561;28;20083;-70
2023/04/28 11:16:58;;;;;;;27.38;13.88;;;;;;;;;;5039723;28;20607;-70
2023/04/28 11:19:28;;;;;;;23.70;12.02;;;;;;;;;;5018219;28;20033;-71
2023/04/28 11:21:57;;;;;;;15.45;7.63;;;;;;;;;;5009440;28;20630;-70
2023/04/28 11:24:26;;;;;;;9.40;4.90;;;;;;;;;;5038962;28;20042;-70
2023/04/28 11:26:54;;;;;;;16.17;5.20;;;;;;;;;;5025559;28;20137;-69
2023/04/28 11:29:39;;;;;;;15.20;5.70;;;;;;;;;;5039744;28;20033;-68
2023/04/28 11:32:05;;;;;;;28.70;6.43;;;;;;;;;;5009046;28;20076;-68
2023/04/28 11:34:30;;;;;;;43.45;5.80;;;;;;;;;;5008146;28;20030;-70
2023/04/28 11:36:55;;;;;;;29.23;6.43;;;;;;;;;;5034390;28;20059;-71
2023/04/28 11:39:27;;;;;;;34.15;5.63;;;;;;;;;;5030448;28;20069;-68
2023/04/28 11:41:52;;;;;;;20.77;5.80;;;;;;;;;;5013800;28;20041;-70
2023/04/28 11:44:19;;;;;;;21.27;5.65;;;;;;;;;;4987540;28;20041;-69
2023/04/28 11:46:49;;;;;;;24.63;6.35;;;;;;;;;;4985095;28;20090;-70
2023/04/28 11:49:17;;;;;;;29.60;5.70;;;;;;;;;;4982122;28;20593;-70
2023/04/28 11:51:44;;;;;;;22.65;5.43;;;;;;;;;;5015903;28;20041;-69
2023/04/28 11:54:13;;;;;;;27.98;5.63;;;;;;;;;;4985140;28;20049;-70
2023/04/28 11:56:40;;;;;;;29.73;6.78;;;;;;;;;;4987135;28;20034;-68
2023/04/28 11:59:07;;;;;;;34.63;5.97;;;;;;;;;;4994308;28;20033;-69
2023/04/28 12:01:33;;;;;;;40.97;6.65;;;;;;;;;;4984836;28;20053;-70
2023/04/28 12:04:01;;;;;;;34.00;7.13;;;;;;;;;;4993526;28;20061;-70
2023/04/28 12:06:27;;;;;;;29.23;7.03;;;;;;;;;;5020921;28;20592;-68
2023/04/28 12:08:52;;;;;;;24.00;6.43;;;;;;;;;;4992666;28;20046;-67
2023/04/28 12:11:19;;;;;;;25.48;7.38;;;;;;;;;;5004502;28;20803;-69
2023/04/28 12:14:01;;;;;;;31.52;6.82;;;;;;;;;;5007473;28;20033;-68
2023/04/28 12:16:37;;;;;;;28.42;7.65;;;;;;;;;;5007681;28;20410;-68
2023/04/28 12:19:06;;;;;;;39.13;7.05;;;;;;;;;;5039107;28;20068;-70
2023/04/28 12:21:32;;;;;;;37.03;8.10;;;;;;;;;;5005070;28;20588;-68
2023/04/28 12:23:57;;;;;;;34.65;8.00;;;;;;;;;;5006388;28;20049;-70
2023/04/28 12:26:25;;;;;;;26.95;7.90;;;;;;;;;;5004299;28;20043;-68
2023/04/28 12:28:51;;;;;;;35.65;8.13;;;;;;;;;;5007455;28;20694;-70
2023/04/28 12:31:16;;;;;;;59.53;8.73;;;;;;;;;;4986214;28;20049;-68
2023/04/28 12:33:43;;;;;;;41.22;9.20;;;;;;;;;;4985313;28;20117;-69
2023/04/28 12:36:09;;;;;;;43.72;9.73;;;;;;;;;;5011025;28;20076;-70
2023/04/28 12:38:35;;;;;;;39.25;9.20;;;;;;;;;;5004023;28;20637;-71
2023/04/28 12:41:01;;;;;;;63.15;11.38;;;;;;;;;;5004572;28;20041;-72
2023/04/28 12:43:28;;;;;;;43.05;10.93;;;;;;;;;;5006729;28;20036;-73
2023/04/28 12:45:54;;;;;;;54.10;12.63;;;;;;;;;;5003693;28;20049;-74
2023/04/28 12:48:24;;;;;;;45.83;11.73;;;;;;;;;;5008776;28;20038;-71
2023/04/28 12:50:50;;;;;;;52.13;12.07;;;;;;;;;;5004293;28;20123;-72
2023/04/28 12:53:15;;;;;;;67.65;12.93;;;;;;;;;;5005912;28;20975;-72
2023/04/28 12:55:41;;;;;;;56.90;13.25;;;;;;;;;;5004314;28;20034;-71
2023/04/28 12:58:06;;;;;;;61.95;12.55;;;;;;;;;;4990864;28;20037;-71
2023/04/28 13:00:31;;;;;;;55.97;13.43;;;;;;;;;;5036982;28;20045;-70
2023/04/28 13:02:57;;;;;;;55.10;14.25;;;;;;;;;;5032547;28;20530;-70
2023/04/28 13:05:22;;;;;;;55.80;15.13;;;;;;;;;;4982742;28;21428;-71
2023/04/28 13:07:51;;;;;;;61.33;15.60;;;;;;;;;;4983293;28;20041;-71
2023/04/28 13:10:17;;;;;;;58.65;16.80;;;;;;;;;;4987919;28;20045;-71
2023/04/28 13:12:43;;;;;;;55.38;16.20;;;;;;;;;;4982510;28;20042;-70
2023/04/28 13:15:11;;;;;;;68.05;18.02;;;;;;;;;;4982535;28;20045;-73
2023/04/28 13:17:36;;;;;;;65.10;17.88;;;;;;;;;;4983036;28;20037;-70
2023/04/28 13:20:02;;;;;;;57.08;18.30;;;;;;;;;;4983070;28;20042;-68
2023/04/28 13:22:30;;;;;;;60.42;18.58;;;;;;;;;;5022789;28;20124;-73
2023/04/28 13:24:56;;;;;;;57.97;19.15;;;;;;;;;;5022569;28;20521;-71
2023/04/28 13:27:21;;;;;;;50.40;18.08;;;;;;;;;;5040290;28;20041;-70
2023/04/28 13:29:49;;;;;;;46.63;17.52;;;;;;;;;;5024668;28;20044;-70
2023/04/28 13:32:15;;;;;;;44.00;18.23;;;;;;;;;;5010491;28;20045;-72
2023/04/28 13:34:40;;;;;;;38.97;17.40;;;;;;;;;;5008638;28;20426;-73
2023/04/28 13:37:08;;;;;;;38.25;17.35;;;;;;;;;;5015942;28;20085;-70
2023/04/28 13:39:33;;;;;;;37.65;17.30;;;;;;;;;;5010103;28;20067;-69
2023/04/28 13:41:59;;;;;;;31.90;15.45;;;;;;;;;;5009238;28;20896;-71
2023/04/28 13:44:26;;;;;;;31.95;14.95;;;;;;;;;;5008543;28;20910;-73
2023/04/28 13:46:52;;;;;;;36.25;16.08;;;;;;;;;;5007345;28;20119;-72
2023/04/28 13:49:21;;;;;;;31.58;15.10;;;;;;;;;;5041128;28;20087;-71
2023/04/28 13:51:46;;;;;;;26.48;13.70;;;;;;;;;;5003315;28;20052;-70
2023/04/28 13:54:14;;;;;;;29.85;14.25;;;;;;;;;;5039952;28;20104;-72
2023/04/28 13:56:42;;;;;;;25.73;13.90;;;;;;;;;;5028586;28;20470;-74
2023/04/28 13:59:07;;;;;;;26.80;13.45;;;;;;;;;;5043590;28;20561;-75
2023/04/28 14:01:35;;;;;;;25.50;13.23;;;;;;;;;;5019886;28;20046;-70
2023/04/28 14:04:00;;;;;;;28.55;14.15;;;;;;;;;;5018254;28;20044;-71
2023/04/28 14:06:26;;;;;;;27.25;13.63;;;;;;;;;;4987560;28;20033;-69
2023/04/28 14:08:51;;;;;;;27.85;13.93;;;;;;;;;;4984828;28;20046;-73
2023/04/28 14:11:17;;;;;;;24.65;13.02;;;;;;;;;;4993858;28;20049;-75
2023/04/28 14:13:44;;;;;;;26.23;13.07;;;;;;;;;;4990900;28;20169;-72
2023/04/28 14:16:10;;;;;;;24.85;12.50;;;;;;;;;;4992906;28;20494;-74
2023/04/28 14:18:36;;;;;;;23.58;11.70;;;;;;;;;;4987780;28;20473;-72